createdAt,value
2022-07-31T00:00:12.573Z,1.05
2022-07-31T00:02:39.224Z,0.98
2022-07-31T00:05:06.502Z,1.05
2022-07-31T00:07:33.122Z,1.08
2022-07-31T00:09:59.826Z,0.88
2022-07-31T00:12:26.492Z,0.77
2022-07-31T00:14:53.125Z,0.93
2022-07-31T00:17:20.087Z,1.00
2022-07-31T00:19:47.060Z,1.02
2022-07-31T00:22:13.642Z,1.27
2022-07-31T00:24:40.253Z,0.85
2022-07-31T00:27:07.247Z,0.90
2022-07-31T00:29:33.961Z,1.20
2022-07-31T00:32:00.525Z,1.08
2022-07-31T00:34:27.151Z,0.80
2022-07-31T00:36:53.780Z,1.00
2022-07-31T00:39:20.524Z,0.95
2022-07-31T00:41:47.372Z,1.10
2022-07-31T00:44:14.049Z,1.40
2022-07-31T00:46:42.023Z,1.02
2022-07-31T00:49:10.009Z,1.00
2022-07-31T00:51:37.994Z,1.00
2022-07-31T00:54:05.459Z,1.10
2022-07-31T00:56:32.351Z,0.98
2022-07-31T00:58:59.053Z,1.25
2022-07-31T01:01:25.797Z,1.00
2022-07-31T01:03:53.439Z,0.93
2022-07-31T01:06:20.592Z,0.95
2022-07-31T01:08:47.270Z,0.93
2022-07-31T01:11:24.484Z,0.90
2022-07-31T01:13:56.558Z,0.88
2022-07-31T01:16:26.228Z,1.10
2022-07-31T01:18:56.846Z,1.20
2022-07-31T01:21:36.369Z,1.00
2022-07-31T01:24:29.603Z,1.08
2022-07-31T01:27:18.419Z,1.13
2022-07-31T01:29:49.555Z,1.00
2022-07-31T01:32:28.106Z,1.00
2022-07-31T01:35:21.896Z,1.02
2022-07-31T01:38:01.158Z,1.20
2022-07-31T01:40:36.308Z,1.13
2022-07-31T01:43:16.262Z,1.20
2022-07-31T01:45:45.459Z,1.20
2022-07-31T01:48:14.969Z,1.17
2022-07-31T01:50:46.141Z,1.20
2022-07-31T01:53:15.847Z,1.10
2022-07-31T01:56:01.955Z,1.00
2022-07-31T01:58:36.197Z,1.10
2022-07-31T02:01:11.630Z,1.08
2022-07-31T02:03:43.977Z,1.30
2022-07-31T02:06:15.865Z,0.95
2022-07-31T02:08:46.217Z,0.85
2022-07-31T02:11:19.939Z,1.10
2022-07-31T02:13:48.346Z,1.40
2022-07-31T02:16:17.361Z,1.30
2022-07-31T02:18:46.455Z,1.10
2022-07-31T02:21:18.845Z,1.55
2022-07-31T02:23:45.528Z,1.10
2022-07-31T02:26:15.637Z,1.00
2022-07-31T02:28:44.873Z,1.42
2022-07-31T02:31:14.567Z,0.93
2022-07-31T02:33:46.601Z,1.23
2022-07-31T02:36:16.240Z,1.17
2022-07-31T02:38:44.599Z,1.00
2022-07-31T02:41:14.329Z,1.20
2022-07-31T02:43:42.582Z,1.48
2022-07-31T02:46:18.882Z,1.30
2022-07-31T02:48:46.250Z,1.40
2022-07-31T02:51:14.572Z,1.20
2022-07-31T02:53:42.218Z,1.50
2022-07-31T02:56:10.139Z,1.35
2022-07-31T02:58:42.749Z,1.40
2022-07-31T03:01:19.869Z,1.50
2022-07-31T03:03:46.892Z,0.95
2022-07-31T03:06:14.334Z,1.23
2022-07-31T03:08:41.035Z,1.35
2022-07-31T03:11:08.663Z,1.17
2022-07-31T03:13:36.786Z,1.40
2022-07-31T03:16:07.193Z,0.98
2022-07-31T03:18:33.981Z,1.35
2022-07-31T03:21:01.480Z,1.70
2022-07-31T03:23:36.071Z,1.15
2022-07-31T03:26:07.580Z,1.33
2022-07-31T03:28:35.805Z,1.23
2022-07-31T03:31:03.022Z,1.20
2022-07-31T03:33:31.164Z,0.80
2022-07-31T03:35:58.958Z,1.15
2022-07-31T03:38:42.144Z,1.13
2022-07-31T03:41:17.613Z,1.10
2022-07-31T03:43:48.097Z,1.23
2022-07-31T03:46:21.876Z,1.70
2022-07-31T03:48:51.958Z,1.10
2022-07-31T03:51:19.432Z,1.05
2022-07-31T03:53:46.765Z,1.30
2022-07-31T03:56:35.849Z,1.10
2022-07-31T03:59:03.505Z,1.30
2022-07-31T04:02:10.552Z,1.27
2022-07-31T04:04:23.939Z,1.08
2022-07-31T04:06:59.910Z,1.00
2022-07-31T04:09:27.184Z,1.00
2022-07-31T04:11:53.762Z,1.40
2022-07-31T04:14:21.239Z,1.27
2022-07-31T04:16:48.139Z,1.10
2022-07-31T04:19:14.811Z,1.70
2022-07-31T04:21:41.497Z,1.33
2022-07-31T04:24:08.854Z,1.27
2022-07-31T04:26:44.890Z,1.33
2022-07-31T04:29:12.556Z,1.17
2022-07-31T04:31:39.169Z,1.40
2022-07-31T04:34:08.350Z,1.23
2022-07-31T04:36:35.081Z,1.58
2022-07-31T04:39:01.804Z,1.40
2022-07-31T04:41:29.243Z,1.58
2022-07-31T04:43:57.811Z,1.73
2022-07-31T04:46:25.815Z,1.13
2022-07-31T04:48:52.579Z,1.30
2022-07-31T04:51:22.152Z,1.30
2022-07-31T04:53:50.348Z,1.40
2022-07-31T04:56:42.132Z,1.05
2022-07-31T04:59:12.060Z,1.13
2022-07-31T05:01:42.284Z,1.30
2022-07-31T05:04:10.351Z,1.45
2022-07-31T05:06:39.644Z,1.30
2022-07-31T05:09:10.061Z,1.27
2022-07-31T05:11:40.020Z,1.15
2022-07-31T05:14:09.069Z,1.63
2022-07-31T05:16:36.797Z,1.65
2022-07-31T05:19:05.411Z,1.33
2022-07-31T05:22:02.344Z,1.88
2022-07-31T05:24:33.630Z,1.52
2022-07-31T05:27:21.079Z,1.88
2022-07-31T05:29:47.682Z,1.67
2022-07-31T05:32:14.643Z,1.48
2022-07-31T05:34:41.436Z,1.55
2022-07-31T05:37:09.468Z,1.85
2022-07-31T05:39:39.616Z,1.77
2022-07-31T05:42:24.967Z,1.88
2022-07-31T05:45:22.411Z,1.65
2022-07-31T05:47:49.087Z,2.17
2022-07-31T05:50:15.878Z,1.80
2022-07-31T05:52:42.683Z,1.98
2022-07-31T05:55:29.387Z,2.15
2022-07-31T05:58:19.849Z,2.00
2022-07-31T06:00:48.800Z,1.98
2022-07-31T06:03:16.440Z,2.33
2022-07-31T06:05:56.308Z,1.90
2022-07-31T06:08:23.498Z,2.25
2022-07-31T06:10:51.231Z,2.20
2022-07-31T06:13:19.035Z,2.13
2022-07-31T06:15:49.336Z,2.15
2022-07-31T06:18:16.512Z,1.98
2022-07-31T06:20:43.265Z,1.90
2022-07-31T06:23:19.806Z,2.15
2022-07-31T06:26:01.333Z,2.00
2022-07-31T06:28:42.554Z,2.05
2022-07-31T06:33:52.764Z,2.63
2022-07-31T06:36:22.480Z,2.28
2022-07-31T06:38:59.548Z,2.63
2022-07-31T06:41:44.463Z,2.08
2022-07-31T06:44:45.767Z,2.88
2022-07-31T06:47:31.768Z,2.80
2022-07-31T06:50:10.576Z,2.78
2022-07-31T06:52:39.476Z,2.50
2022-07-31T06:55:07.589Z,3.25
2022-07-31T06:57:34.462Z,2.28
2022-07-31T07:00:06.927Z,2.72
2022-07-31T07:02:46.840Z,3.00
2022-07-31T07:05:13.566Z,2.90
2022-07-31T07:07:40.346Z,3.28
2022-07-31T07:10:08.896Z,3.15
2022-07-31T07:12:54.329Z,3.40
2022-07-31T07:15:21.716Z,3.25
2022-07-31T07:17:48.429Z,3.20
2022-07-31T07:20:20.527Z,3.70
2022-07-31T07:22:47.354Z,3.30
2022-07-31T07:27:51.072Z,3.72
2022-07-31T07:30:17.767Z,3.83
2022-07-31T07:32:44.475Z,4.22
2022-07-31T07:35:12.471Z,3.47
2022-07-31T07:37:52.783Z,3.75
2022-07-31T07:40:21.024Z,3.85
2022-07-31T07:42:48.549Z,3.53
2022-07-31T07:45:15.168Z,3.83
2022-07-31T07:48:05.198Z,3.83
2022-07-31T07:50:32.934Z,3.40
2022-07-31T07:53:32.047Z,3.20
2022-07-31T07:56:17.486Z,3.33
2022-07-31T07:59:04.112Z,4.00
2022-07-31T08:01:50.785Z,4.40
2022-07-31T08:04:22.767Z,3.92
2022-07-31T08:06:49.381Z,3.60
2022-07-31T08:09:17.372Z,4.03
2022-07-31T08:12:05.198Z,4.35
2022-07-31T08:14:55.375Z,3.50
2022-07-31T08:17:51.362Z,3.33
2022-07-31T08:20:18.078Z,2.55
2022-07-31T08:22:44.770Z,3.10
2022-07-31T08:25:14.294Z,3.10
2022-07-31T08:27:42.265Z,2.65
2022-07-31T08:30:10.247Z,2.25
2022-07-31T08:32:38.388Z,2.33
2022-07-31T08:35:10.810Z,2.10
2022-07-31T08:38:01.493Z,2.55
2022-07-31T08:40:30.145Z,1.75
2022-07-31T08:42:57.979Z,1.92
2022-07-31T08:45:28.616Z,1.80
2022-07-31T08:48:30.364Z,1.73
2022-07-31T08:50:58.343Z,1.65
2022-07-31T08:53:51.161Z,1.63
2022-07-31T08:56:20.343Z,1.58
2022-07-31T08:58:47.008Z,1.77
2022-07-31T09:01:14.452Z,1.88
2022-07-31T09:03:41.691Z,1.35
2022-07-31T09:06:13.225Z,1.58
2022-07-31T09:08:41.502Z,1.38
2022-07-31T09:11:14.307Z,1.08
2022-07-31T09:14:02.189Z,1.73
2022-07-31T09:16:47.140Z,1.58
2022-07-31T09:19:51.158Z,1.55
2022-07-31T09:22:10.159Z,1.88
2022-07-31T09:24:39.534Z,1.58
2022-07-31T09:27:09.678Z,2.10
2022-07-31T09:29:41.833Z,1.77
2022-07-31T09:32:21.068Z,1.40
2022-07-31T09:35:11.638Z,1.98
2022-07-31T09:37:39.214Z,1.38
2022-07-31T09:40:37.519Z,1.80
2022-07-31T09:43:51.506Z,1.65
2022-07-31T09:46:19.060Z,2.17
2022-07-31T09:48:59.819Z,2.05
2022-07-31T09:51:41.369Z,1.50
2022-07-31T09:54:24.550Z,1.85
2022-07-31T09:57:15.624Z,1.80
2022-07-31T09:59:51.155Z,2.10
2022-07-31T10:02:19.770Z,1.52
2022-07-31T10:04:50.449Z,2.38
2022-07-31T10:07:31.789Z,1.80
2022-07-31T10:10:05.241Z,1.90
2022-07-31T10:12:48.251Z,1.92
2022-07-31T10:15:17.399Z,1.70
2022-07-31T10:17:49.679Z,2.22
2022-07-31T10:20:37.508Z,1.83
2022-07-31T10:23:30.340Z,2.05
2022-07-31T10:26:01.994Z,2.25
2022-07-31T10:28:29.720Z,1.98
2022-07-31T10:30:58.613Z,2.08
2022-07-31T10:33:43.462Z,1.65
2022-07-31T10:36:37.285Z,2.33
2022-07-31T10:39:43.696Z,1.58
2022-07-31T10:42:49.474Z,1.70
2022-07-31T10:45:17.412Z,1.50
2022-07-31T10:48:11.206Z,1.70
2022-07-31T10:51:02.968Z,1.60
2022-07-31T10:54:00.465Z,1.50
2022-07-31T10:56:48.218Z,1.52
2022-07-31T10:59:44.966Z,2.17
2022-07-31T11:02:35.443Z,1.92
2022-07-31T11:05:24.743Z,1.85
2022-07-31T11:08:11.714Z,1.80
2022-07-31T11:11:00.786Z,1.67
2022-07-31T11:13:55.222Z,1.63
2022-07-31T11:16:55.582Z,2.10
2022-07-31T11:19:45.447Z,1.52
2022-07-31T11:22:32.074Z,1.75
2022-07-31T11:25:00.489Z,1.73
2022-07-31T11:27:34.319Z,1.60
2022-07-31T11:30:12.598Z,1.33
2022-07-31T11:32:40.864Z,1.77
2022-07-31T11:35:08.173Z,1.63
2022-07-31T11:37:56.466Z,1.40
2022-07-31T11:40:26.527Z,1.98
2022-07-31T11:43:24.382Z,2.15
2022-07-31T11:45:53.484Z,1.63
2022-07-31T11:48:26.573Z,2.13
2022-07-31T11:50:54.582Z,2.00
2022-07-31T11:53:21.411Z,1.67
2022-07-31T11:55:59.552Z,1.80
2022-07-31T11:58:28.113Z,1.67
2022-07-31T12:00:56.330Z,1.67
2022-07-31T12:03:31.318Z,1.90
2022-07-31T12:05:58.138Z,1.88
2022-07-31T12:08:26.604Z,1.63
2022-07-31T12:10:55.250Z,1.45
2022-07-31T12:13:23.483Z,1.67
2022-07-31T12:16:02.498Z,1.73
2022-07-31T12:18:31.118Z,1.75
2022-07-31T12:21:03.414Z,1.45
2022-07-31T12:23:50.890Z,1.80
2022-07-31T12:26:33.220Z,1.92
2022-07-31T12:29:07.806Z,2.55
2022-07-31T12:32:04.284Z,2.03
2022-07-31T12:34:38.253Z,2.00
2022-07-31T12:37:13.947Z,2.17
2022-07-31T12:40:00.395Z,2.22
2022-07-31T12:42:31.229Z,1.80
2022-07-31T12:45:19.299Z,1.70
2022-07-31T12:47:51.433Z,1.52
2022-07-31T12:50:19.675Z,1.30
2022-07-31T12:52:46.310Z,1.27
2022-07-31T12:55:12.973Z,1.60
2022-07-31T12:57:41.796Z,1.50
2022-07-31T13:00:18.954Z,1.75
2022-07-31T13:02:45.699Z,1.50
2022-07-31T13:05:12.381Z,1.67
2022-07-31T13:07:39.139Z,1.88
2022-07-31T13:10:20.072Z,1.85
2022-07-31T13:12:51.421Z,1.88
2022-07-31T13:15:19.935Z,1.63
2022-07-31T13:17:50.538Z,1.50
2022-07-31T13:20:18.269Z,1.58
2022-07-31T13:22:44.951Z,1.73
2022-07-31T13:25:11.876Z,1.85
2022-07-31T13:27:38.578Z,1.50
2022-07-31T13:30:05.806Z,1.83
2022-07-31T13:32:32.820Z,1.67
2022-07-31T13:35:26.265Z,1.20
2022-07-31T13:37:46.837Z,1.70
2022-07-31T13:40:13.924Z,1.40
2022-07-31T13:42:40.559Z,2.25
2022-07-31T13:45:08.656Z,2.08
2022-07-31T13:47:51.074Z,2.00
2022-07-31T13:50:19.254Z,1.70
2022-07-31T13:52:46.007Z,1.50
2022-07-31T13:55:12.661Z,1.50
2022-07-31T13:57:39.348Z,1.70
2022-07-31T14:00:07.327Z,1.33
2022-07-31T14:02:34.032Z,1.27
2022-07-31T14:05:00.885Z,1.30
2022-07-31T14:07:48.470Z,1.60
2022-07-31T14:10:19.951Z,1.55
2022-07-31T14:12:47.493Z,1.70
2022-07-31T14:15:14.426Z,1.30
2022-07-31T14:17:41.123Z,1.75
2022-07-31T14:20:08.419Z,1.63
2022-07-31T14:22:35.145Z,1.58
2022-07-31T14:25:01.912Z,1.40
2022-07-31T14:27:28.650Z,1.60
2022-07-31T14:29:55.348Z,1.45
2022-07-31T14:32:22.276Z,1.48
2022-07-31T14:34:50.062Z,1.50
2022-07-31T14:37:17.193Z,1.42
2022-07-31T14:39:44.101Z,1.67
2022-07-31T14:42:11.762Z,1.60
2022-07-31T14:44:41.556Z,1.67
2022-07-31T14:47:09.297Z,1.70
2022-07-31T14:50:08.042Z,1.65
2022-07-31T14:52:22.835Z,1.60
2022-07-31T14:54:49.661Z,1.70
2022-07-31T14:57:21.929Z,1.42
2022-07-31T14:59:50.137Z,1.83
2022-07-31T15:02:21.812Z,1.50
2022-07-31T15:04:49.233Z,2.15
2022-07-31T15:10:06.588Z,1.23
2022-07-31T15:12:33.586Z,1.38
2022-07-31T15:15:00.425Z,1.58
2022-07-31T15:17:27.283Z,1.60
2022-07-31T15:19:53.927Z,1.52
2022-07-31T15:22:20.556Z,1.90
2022-07-31T15:24:49.802Z,2.30
2022-07-31T15:27:24.657Z,1.55
2022-07-31T15:30:05.555Z,1.53
2022-07-31T15:32:38.055Z,1.60
2022-07-31T15:35:06.870Z,1.80
2022-07-31T15:37:35.887Z,1.63
2022-07-31T15:40:05.161Z,1.73
2022-07-31T15:42:32.752Z,1.60
2022-07-31T15:44:59.410Z,1.58
2022-07-31T15:47:26.045Z,1.90
2022-07-31T15:49:52.797Z,2.15
2022-07-31T15:52:19.812Z,1.95
2022-07-31T15:54:47.096Z,1.55
2022-07-31T15:57:14.598Z,1.75
2022-07-31T15:59:41.777Z,1.60
2022-07-31T16:02:08.404Z,1.58
2022-07-31T16:04:36.677Z,1.38
2022-07-31T16:08:28.799Z,1.40
2022-07-31T16:10:16.234Z,1.42
2022-07-31T16:12:47.753Z,1.40
2022-07-31T16:15:16.173Z,1.63
2022-07-31T16:17:43.482Z,1.33
2022-07-31T16:20:25.691Z,1.70
2022-07-31T16:23:03.237Z,1.35
2022-07-31T16:25:31.986Z,1.67
2022-07-31T16:28:02.631Z,2.03
2022-07-31T16:30:29.234Z,1.88
2022-07-31T16:32:56.059Z,1.90
2022-07-31T16:35:25.973Z,1.73
2022-07-31T16:37:53.836Z,2.28
2022-07-31T16:40:30.538Z,2.00
2022-07-31T16:43:46.824Z,2.10
2022-07-31T16:45:51.906Z,2.10
2022-07-31T16:48:19.073Z,1.88
2022-07-31T16:50:48.322Z,2.20
2022-07-31T16:54:11.034Z,2.10
2022-07-31T16:56:08.101Z,1.92
2022-07-31T16:58:34.772Z,2.30
2022-07-31T17:01:03.885Z,2.58
2022-07-31T17:04:00.132Z,1.85
2022-07-31T17:06:17.265Z,2.85
2022-07-31T17:08:43.946Z,2.65
2022-07-31T17:11:10.603Z,2.70
2022-07-31T17:13:37.180Z,2.83
2022-07-31T17:16:04.193Z,2.08
2022-07-31T17:18:30.779Z,1.60
2022-07-31T17:20:58.340Z,1.63
2022-07-31T17:23:42.767Z,2.72
2022-07-31T17:26:21.452Z,1.80
2022-07-31T17:28:50.412Z,1.02
2022-07-31T17:31:18.715Z,1.70
2022-07-31T17:33:58.294Z,1.30
2022-07-31T17:36:27.230Z,1.35
2022-07-31T17:38:53.801Z,1.70
2022-07-31T17:41:25.139Z,1.80
2022-07-31T17:43:55.379Z,1.30
2022-07-31T17:46:28.531Z,1.40
2022-07-31T17:49:05.676Z,1.70
2022-07-31T17:51:33.017Z,1.45
2022-07-31T17:54:00.223Z,1.50
2022-07-31T17:56:27.060Z,1.77
2022-07-31T17:58:55.395Z,1.40
2022-07-31T18:01:27.019Z,1.80
2022-07-31T18:03:55.889Z,1.55
2022-07-31T18:06:22.666Z,1.40
2022-07-31T18:08:49.414Z,1.50
2022-07-31T18:11:16.039Z,1.73
2022-07-31T18:13:48.759Z,1.55
2022-07-31T18:16:18.686Z,1.90
2022-07-31T18:18:45.857Z,2.00
2022-07-31T18:21:13.304Z,2.08
2022-07-31T18:23:44.060Z,2.70
2022-07-31T18:26:14.487Z,2.75
2022-07-31T18:28:41.604Z,2.60
2022-07-31T18:31:32.353Z,3.03
2022-07-31T18:33:55.135Z,2.58
2022-07-31T18:36:23.497Z,2.47
2022-07-31T18:38:51.852Z,2.35
2022-07-31T18:41:18.544Z,2.17
2022-07-31T18:43:45.177Z,2.13
2022-07-31T18:46:11.761Z,2.00
2022-07-31T18:48:38.472Z,2.17
2022-07-31T18:51:05.748Z,2.25
2022-07-31T18:53:33.222Z,2.17
2022-07-31T18:55:59.865Z,2.38
2022-07-31T18:58:26.564Z,1.88
2022-07-31T19:00:55.087Z,1.85
2022-07-31T19:03:23.514Z,2.00
2022-07-31T19:05:52.735Z,2.08
2022-07-31T19:08:20.534Z,1.90
2022-07-31T19:10:49.239Z,1.77
2022-07-31T19:13:18.650Z,1.80
2022-07-31T19:15:51.417Z,1.75
2022-07-31T19:18:21.791Z,2.80
2022-07-31T19:21:22.983Z,2.13
2022-07-31T19:23:44.551Z,2.35
2022-07-31T19:26:11.318Z,1.92
2022-07-31T19:28:39.618Z,2.10
2022-07-31T19:31:07.033Z,1.95
2022-07-31T19:33:33.981Z,1.85
2022-07-31T19:36:02.611Z,2.25
2022-07-31T19:38:31.442Z,2.28
2022-07-31T19:40:58.266Z,2.33
2022-07-31T19:43:25.073Z,2.38
2022-07-31T19:46:10.371Z,2.15
2022-07-31T19:48:46.193Z,2.72
2022-07-31T19:51:15.374Z,2.13
2022-07-31T19:53:43.222Z,2.60
2022-07-31T19:56:11.622Z,2.08
2022-07-31T19:58:41.184Z,2.22
2022-07-31T20:01:09.623Z,2.33
2022-07-31T20:03:36.375Z,2.42
2022-07-31T20:06:03.868Z,2.22
2022-07-31T20:08:32.943Z,2.72
2022-07-31T20:11:03.344Z,2.10
2022-07-31T20:13:34.542Z,2.83
2022-07-31T20:16:01.577Z,2.50
2022-07-31T20:18:29.119Z,2.80
2022-07-31T20:20:57.347Z,2.75
2022-07-31T20:23:25.013Z,2.75
2022-07-31T20:25:51.878Z,2.88
2022-07-31T20:28:18.500Z,2.42
2022-07-31T20:30:45.141Z,2.63
2022-07-31T20:33:13.221Z,3.05
2022-07-31T20:35:48.687Z,2.92
2022-07-31T20:38:21.383Z,2.58
2022-07-31T20:40:53.420Z,2.47
2022-07-31T20:43:26.608Z,2.33
2022-07-31T20:45:56.948Z,2.40
2022-07-31T20:48:25.991Z,2.55
2022-07-31T20:50:52.829Z,2.60
2022-07-31T20:53:20.766Z,3.15
2022-07-31T20:55:49.607Z,2.65
2022-07-31T20:58:21.441Z,2.75
2022-07-31T21:00:49.633Z,2.95
2022-07-31T21:03:17.073Z,3.00
2022-07-31T21:05:44.687Z,3.05
2022-07-31T21:08:11.843Z,2.65
2022-07-31T21:10:38.768Z,2.78
2022-07-31T21:13:05.344Z,3.00
2022-07-31T21:15:42.745Z,3.20
2022-07-31T21:18:16.139Z,2.65
2022-07-31T21:20:52.113Z,3.00
2022-07-31T21:23:24.738Z,2.85
2022-07-31T21:25:56.297Z,3.30
2022-07-31T21:28:24.738Z,2.60
2022-07-31T21:30:56.016Z,2.60
2022-07-31T21:33:25.341Z,3.13
2022-07-31T21:35:52.331Z,2.78
2022-07-31T21:38:19.664Z,2.33
2022-07-31T21:40:47.511Z,3.17
2022-07-31T21:43:16.023Z,3.30
2022-07-31T21:45:55.396Z,3.13
2022-07-31T21:48:26.256Z,2.65
2022-07-31T21:50:53.641Z,3.17
2022-07-31T21:53:20.307Z,3.03
2022-07-31T21:55:46.896Z,3.28
2022-07-31T21:58:14.192Z,3.15
2022-07-31T22:00:40.927Z,3.15
2022-07-31T22:03:07.863Z,3.45
2022-07-31T22:05:53.426Z,3.33
2022-07-31T22:08:20.912Z,3.20
2022-07-31T22:10:50.288Z,3.33
2022-07-31T22:13:17.275Z,3.78
2022-07-31T22:15:55.646Z,3.47
2022-07-31T22:18:30.673Z,3.42
2022-07-31T22:20:58.064Z,3.55
2022-07-31T22:23:26.239Z,3.28
2022-07-31T22:25:53.430Z,3.22
2022-07-31T22:28:22.653Z,3.70
2022-07-31T22:30:50.690Z,3.42
2022-07-31T22:33:17.544Z,4.18
2022-07-31T22:35:44.388Z,4.20
2022-07-31T22:38:11.514Z,3.70
2022-07-31T22:40:38.589Z,3.50
2022-07-31T22:43:47.292Z,3.63
2022-07-31T22:45:54.105Z,3.78
2022-07-31T22:48:21.884Z,4.50
2022-07-31T22:50:49.096Z,4.00
2022-07-31T22:53:16.132Z,4.63
2022-07-31T22:55:42.814Z,3.85
2022-07-31T22:58:11.215Z,3.40
2022-07-31T23:00:38.501Z,3.97
2022-07-31T23:03:05.206Z,4.10
2022-07-31T23:06:02.398Z,4.13
2022-07-31T23:08:18.812Z,3.95
2022-07-31T23:10:45.453Z,4.03
2022-07-31T23:13:12.084Z,4.20
2022-07-31T23:15:38.673Z,3.22
2022-07-31T23:18:05.341Z,4.00
2022-07-31T23:20:31.971Z,3.80
2022-07-31T23:22:58.610Z,3.63
2022-07-31T23:25:25.214Z,3.90
2022-07-31T23:27:51.904Z,3.80
2022-07-31T23:30:18.537Z,3.33
2022-07-31T23:32:45.224Z,3.92
2022-07-31T23:35:11.859Z,3.80
2022-07-31T23:37:38.562Z,4.82
2022-07-31T23:40:05.835Z,4.60
2022-07-31T23:42:38.446Z,4.55
2022-07-31T23:45:07.655Z,4.45
2022-07-31T23:47:46.084Z,4.40
2022-07-31T23:52:40.944Z,4.95
2022-07-31T23:55:07.915Z,4.40
2022-07-31T23:57:36.105Z,5.07
